الصفحة الرئيسية
METAR-TAF:

METAR-TAF

مطار :

مطار تونس قرطاج الدولي

تونس, تونس

دائرة عرض: 36-50N, خط طول: 010-14E, ارتفاع: 3 متر

مراقبة الطقس الحالي

تاريخ ووقت الإصدار 30 دقيقة قبل الساعة 04:00UTC
ريح 3 عقدة من الشرق, الاتجاه يتراوح بين الشمال الشرقي و الجنوب/الجنوب الشرقي
درجة الحرارة 17°درجة مئوية
الرطوبة 88%
ضغط 1018 hPa
الرؤية 10 كم أو أكثر
الغيوم لا تقل 1500 م ولا وجود لمزنة ركامية السحاب الأسود

METAR: DTTA 290400Z 09003KT 040V150 CAVOK 17/15 Q1018

زمن: 05:30 (04:30 UTC)

توقعات

تاريخ ووقت الإصدار 5ساعات و 30 دقيقة قبل الساعة 23:00UTC
التوقعات صالحة من29 الساعة 00 UTC إلى 29 الساعة 24 UTC
ريح 5 عقدة من الجنوب
الرؤية 10 كم أو أكثر
الغيوم لا تقل 1500 م ولا وجود لمزنة ركامية السحاب الأسود
نظرية الاحتمالات 30% :
مؤقت
من 29 الساعة 17 UTC إلى 29 الساعة 24 UTC
ريح 15 عقدة من الشرق/الجنوب الشرقي

TAF: DTTA 282300Z 2900/2924 18005KT CAVOK PROB30 TEMPO 2917/2924 12015KT

أرصاد الطقس والتوقعات من أكثر من 4000 مطار (تقارير الطقس للمطار METAR والتنبؤ بالطقس بالمطارTAF).

المحطات المتاحة هي النقط الصفراء والحمراء على الخريطة.

حرك المؤشر فوق النقطة لمعرفة اسم المحطة.

ثم انقر لمعرفة أرصاد وتوقعات الطقس.

لتغيير الخارطة: اضغط على الأزرار الخضراء مع رمز الصليب الأسود للتكبير. على الزر الأخضر مع شرطة للتصغير، أو على الأسهم الخضراء للخرائط المجاورة.


METAR-TAF: